PWSweather.com
Personal Weather Stations
Station Observations
KMDSOLOM1
solomons, Solomons, MD 20688

solomonsSolomons, MD 20688

Lat: 38.32, Lon: -76.45

Elevation: 5

Station Type:

http://www.act-us.info/weather

High Low Average
Temperature 44.4°F6.9°C 39.3°F4.1°C 41.8°F5.4°C
Dew Point 38.8°F3.8°C 23.5°F-4.7°C 33.1°F0.6°C
Winds 19.0 mph 30.6 kmh Calm Calm 6.0 mph WSW9.7 kmh WSW
Wind Gusts 22.0 mph35.4 kmh -- 11.0 mph17.7 kmh
Humidity 91% 46% 73%
Pressure 30.13 in1020.3 mb 29.84 in1010.5 mb -
Precipitation 0.00 in0.0 mm - -
Hour Temp Dew Point Humidity Winds Wind Gusts Pressure Precip Precip Rate Daily Precip Total
12:00 AM 40.1°F4.5°C 36.6°F2.6°C 87% 4.0 mph ENE6.4 kmh ENE 8.0 mph12.9 kmh 29.91 in1012.9 mb 0.00 in0.0 mm 0.00 in0.0 mm 0.00 in0.0 mm
12:05 AM 40.2°F4.6°C 36.7°F2.6°C 87% 4.0 mph ENE6.4 kmh ENE 8.0 mph12.9 kmh 29.90 in1012.5 mb 0.00 in0.0 mm 0.00 in0.0 mm 0.00 in0.0 mm
12:10 AM 40.1°F4.5°C 36.6°F2.6°C 87% 5.0 mph ENE8.0 kmh ENE 7.0 mph11.3 kmh 29.90 in1012.5 mb 0.00 in0.0 mm 0.00 in0.0 mm 0.00 in0.0 mm
12:15 AM 40.1°F4.5°C 36.6°F2.6°C 87% 5.0 mph ENE8.0 kmh ENE 7.0 mph11.3 kmh 29.90 in1012.5 mb 0.00 in0.0 mm 0.00 in0.0 mm 0.00 in0.0 mm
12:20 AM 40.1°F4.5°C 36.6°F2.6°C 87% 5.0 mph ENE8.0 kmh ENE 7.0 mph11.3 kmh 29.90 in1012.5 mb 0.00 in0.0 mm 0.00 in0.0 mm 0.00 in0.0 mm
12:25 AM 40.2°F4.6°C 36.7°F2.6°C 87% 5.0 mph ENE8.0 kmh ENE 5.0 mph8.0 kmh 29.90 in1012.5 mb 0.00 in0.0 mm 0.00 in0.0 mm 0.00 in0.0 mm
12:30 AM 40.2°F4.6°C 36.9°F2.7°C 88% 4.0 mph ENE6.4 kmh ENE 6.0 mph9.7 kmh 29.90 in1012.5 mb 0.00 in0.0 mm 0.00 in0.0 mm 0.00 in0.0 mm
12:35 AM 40.2°F4.6°C 36.9°F2.7°C 88% 2.0 mph ENE3.2 kmh ENE 6.0 mph9.7 kmh 29.90 in1012.5 mb 0.00 in0.0 mm 0.00 in0.0 mm 0.00 in0.0 mm
12:40 AM 40.2°F4.6°C 36.9°F2.7°C 88% 3.0 mph ENE4.8 kmh ENE 4.0 mph6.4 kmh 29.90 in1012.5 mb 0.00 in0.0 mm 0.00 in0.0 mm 0.00 in0.0 mm
12:45 AM 40.2°F4.6°C 36.9°F2.7°C 88% 2.0 mph ENE3.2 kmh ENE 4.0 mph6.4 kmh 29.90 in1012.5 mb 0.00 in0.0 mm 0.00 in0.0 mm 0.00 in0.0 mm
12:50 AM 40.2°F4.6°C 36.9°F2.7°C 88% 2.0 mph ENE3.2 kmh ENE 4.0 mph6.4 kmh 29.90 in1012.5 mb 0.00 in0.0 mm 0.00 in0.0 mm 0.00 in0.0 mm
12:55 AM 40.4°F4.7°C 37.4°F3.0°C 89% 1.0 mph ENE1.6 kmh ENE 3.0 mph4.8 kmh 29.90 in1012.5 mb 0.00 in0.0 mm 0.00 in0.0 mm 0.00 in0.0 mm
01:00 AM 40.4°F4.7°C 37.4°F3.0°C 89% 1.0 mph ENE1.6 kmh ENE 3.0 mph4.8 kmh 29.89 in1012.2 mb 0.00 in0.0 mm 0.00 in0.0 mm 0.00 in0.0 mm
01:05 AM 40.4°F4.7°C 37.4°F3.0°C 89% 2.0 mph ENE3.2 kmh ENE 3.0 mph4.8 kmh 29.89 in1012.2 mb 0.00 in0.0 mm 0.00 in0.0 mm 0.00 in0.0 mm
01:10 AM 40.5°F4.7°C 37.5°F3.1°C 89% 1.0 mph ENE1.6 kmh ENE 2.0 mph3.2 kmh 29.88 in1011.9 mb 0.00 in0.0 mm 0.00 in0.0 mm 0.00 in0.0 mm
01:15 AM 40.5°F4.7°C 37.5°F3.1°C 89% Calm Calm 3.0 mph4.8 kmh 29.88 in1011.9 mb 0.00 in0.0 mm 0.00 in0.0 mm 0.00 in0.0 mm
01:20 AM 40.5°F4.7°C 37.5°F3.1°C 89% Calm Calm 3.0 mph4.8 kmh 29.88 in1011.9 mb 0.00 in0.0 mm 0.00 in0.0 mm 0.00 in0.0 mm
01:25 AM 40.6°F4.8°C 37.6°F3.1°C 89% Calm Calm 2.0 mph3.2 kmh 29.88 in1011.9 mb 0.00 in0.0 mm 0.00 in0.0 mm 0.00 in0.0 mm
01:30 AM 40.7°F4.8°C 37.7°F3.2°C 89% Calm Calm 2.0 mph3.2 kmh 29.88 in1011.9 mb 0.00 in0.0 mm 0.00 in0.0 mm 0.00 in0.0 mm
01:35 AM 40.6°F4.8°C 37.6°F3.1°C 89% Calm Calm 2.0 mph3.2 kmh 29.88 in1011.9 mb 0.00 in0.0 mm 0.00 in0.0 mm 0.00 in0.0 mm
01:40 AM 40.7°F4.8°C 37.7°F3.2°C 89% Calm Calm -- 29.88 in1011.9 mb 0.00 in0.0 mm 0.00 in0.0 mm 0.00 in0.0 mm
01:45 AM 40.7°F4.8°C 37.7°F3.2°C 89% Calm Calm -- 29.87 in1011.5 mb 0.00 in0.0 mm 0.00 in0.0 mm 0.00 in0.0 mm
01:50 AM 40.7°F4.8°C 37.7°F3.2°C 89% 1.0 mph ENE1.6 kmh ENE 2.0 mph3.2 kmh 29.87 in1011.5 mb 0.00 in0.0 mm 0.00 in0.0 mm 0.00 in0.0 mm
01:55 AM 40.7°F4.8°C 37.7°F3.2°C 89% 2.0 mph ENE3.2 kmh ENE 3.0 mph4.8 kmh 29.86 in1011.2 mb 0.00 in0.0 mm 0.00 in0.0 mm 0.00 in0.0 mm
02:00 AM 40.6°F4.8°C 37.6°F3.1°C 89% Calm Calm 4.0 mph6.4 kmh 29.86 in1011.2 mb 0.00 in0.0 mm 0.00 in0.0 mm 0.00 in0.0 mm
02:05 AM 40.6°F4.8°C 37.6°F3.1°C 89% Calm Calm 4.0 mph6.4 kmh 29.87 in1011.5 mb 0.00 in0.0 mm 0.00 in0.0 mm 0.00 in0.0 mm
02:10 AM 40.6°F4.8°C 37.6°F3.1°C 89% Calm Calm -- 29.87 in1011.5 mb 0.00 in0.0 mm 0.00 in0.0 mm 0.00 in0.0 mm
02:15 AM 40.5°F4.7°C 37.5°F3.1°C 89% Calm Calm -- 29.86 in1011.2 mb 0.00 in0.0 mm 0.00 in0.0 mm 0.00 in0.0 mm
02:20 AM 40.4°F4.7°C 37.4°F3.0°C 89% 1.0 mph ENE1.6 kmh ENE 1.0 mph1.6 kmh 29.86 in1011.2 mb 0.00 in0.0 mm 0.00 in0.0 mm 0.00 in0.0 mm
02:25 AM 40.3°F4.6°C 37.3°F2.9°C 89% 1.0 mph ENE1.6 kmh ENE 2.0 mph3.2 kmh 29.85 in1010.8 mb 0.00 in0.0 mm 0.00 in0.0 mm 0.00 in0.0 mm
02:30 AM 40.3°F4.6°C 37.6°F3.1°C 90% 2.0 mph ENE3.2 kmh ENE 2.0 mph3.2 kmh 29.85 in1010.8 mb 0.00 in0.0 mm 0.00 in0.0 mm 0.00 in0.0 mm
02:35 AM 40.4°F4.7°C 37.7°F3.2°C 90% 2.0 mph ENE3.2 kmh ENE 2.0 mph3.2 kmh 29.85 in1010.8 mb 0.00 in0.0 mm 0.00 in0.0 mm 0.00 in0.0 mm
02:40 AM 40.4°F4.7°C 37.7°F3.2°C 90% 2.0 mph ENE3.2 kmh ENE 3.0 mph4.8 kmh 29.84 in1010.5 mb 0.00 in0.0 mm 0.00 in0.0 mm 0.00 in0.0 mm
02:45 AM 40.4°F4.7°C 37.7°F3.2°C 90% 4.0 mph ENE6.4 kmh ENE 5.0 mph8.0 kmh 29.86 in1011.2 mb 0.00 in0.0 mm 0.00 in0.0 mm 0.00 in0.0 mm
02:50 AM 40.5°F4.7°C 37.8°F3.2°C 90% Calm Calm 5.0 mph8.0 kmh 29.86 in1011.2 mb 0.00 in0.0 mm 0.00 in0.0 mm 0.00 in0.0 mm
02:55 AM 40.5°F4.7°C 37.8°F3.2°C 90% Calm Calm 3.0 mph4.8 kmh 29.86 in1011.2 mb 0.00 in0.0 mm 0.00 in0.0 mm 0.00 in0.0 mm
03:00 AM 40.5°F4.7°C 37.8°F3.2°C 90% Calm Calm 3.0 mph4.8 kmh 29.86 in1011.2 mb 0.00 in0.0 mm 0.00 in0.0 mm 0.00 in0.0 mm
03:05 AM 40.5°F4.7°C 37.8°F3.2°C 90% Calm Calm 3.0 mph4.8 kmh 29.86 in1011.2 mb 0.00 in0.0 mm 0.00 in0.0 mm 0.00 in0.0 mm
03:10 AM 40.6°F4.8°C 37.9°F3.3°C 90% 2.0 mph ENE3.2 kmh ENE 3.0 mph4.8 kmh 29.86 in1011.2 mb 0.00 in0.0 mm 0.00 in0.0 mm 0.00 in0.0 mm
03:15 AM 40.6°F4.8°C 37.9°F3.3°C 90% 4.0 mph NE6.4 kmh NE 4.0 mph6.4 kmh 29.86 in1011.2 mb 0.00 in0.0 mm 0.00 in0.0 mm 0.00 in0.0 mm
03:20 AM 40.6°F4.8°C 37.9°F3.3°C 90% 3.0 mph NW4.8 kmh NW 7.0 mph11.3 kmh 29.87 in1011.5 mb 0.00 in0.0 mm 0.00 in0.0 mm 0.00 in0.0 mm
03:25 AM 40.5°F4.7°C 37.8°F3.2°C 90% 3.0 mph WNW4.8 kmh WNW 4.0 mph6.4 kmh 29.86 in1011.2 mb 0.00 in0.0 mm 0.00 in0.0 mm 0.00 in0.0 mm
03:30 AM 40.5°F4.7°C 37.8°F3.2°C 90% 1.0 mph WNW1.6 kmh WNW 4.0 mph6.4 kmh 29.87 in1011.5 mb 0.00 in0.0 mm 0.00 in0.0 mm 0.00 in0.0 mm
03:35 AM 40.6°F4.8°C 37.9°F3.3°C 90% 4.0 mph WNW6.4 kmh WNW 4.0 mph6.4 kmh 29.87 in1011.5 mb 0.00 in0.0 mm 0.00 in0.0 mm 0.00 in0.0 mm
03:40 AM 40.5°F4.7°C 37.8°F3.2°C 90% 1.0 mph WNW1.6 kmh WNW 4.0 mph6.4 kmh 29.88 in1011.9 mb 0.00 in0.0 mm 0.00 in0.0 mm 0.00 in0.0 mm
03:45 AM 40.5°F4.7°C 37.8°F3.2°C 90% 2.0 mph WNW3.2 kmh WNW 4.0 mph6.4 kmh 29.88 in1011.9 mb 0.00 in0.0 mm 0.00 in0.0 mm 0.00 in0.0 mm
03:50 AM 40.6°F4.8°C 37.9°F3.3°C 90% 3.0 mph WNW4.8 kmh WNW 4.0 mph6.4 kmh 29.88 in1011.9 mb 0.00 in0.0 mm 0.00 in0.0 mm 0.00 in0.0 mm
03:55 AM 40.6°F4.8°C 37.9°F3.3°C 90% 4.0 mph WNW6.4 kmh WNW 4.0 mph6.4 kmh 29.88 in1011.9 mb 0.00 in0.0 mm 0.00 in0.0 mm 0.00 in0.0 mm
04:00 AM 40.7°F4.8°C 38.3°F3.5°C 91% Calm Calm 5.0 mph8.0 kmh 29.88 in1011.9 mb 0.00 in0.0 mm 0.00 in0.0 mm 0.00 in0.0 mm
04:05 AM 40.8°F4.9°C 38.4°F3.6°C 91% 7.0 mph WNW11.3 kmh WNW 7.0 mph11.3 kmh 29.88 in1011.9 mb 0.00 in0.0 mm 0.00 in0.0 mm 0.00 in0.0 mm
04:10 AM 40.9°F4.9°C 38.5°F3.6°C 91% 6.0 mph WSW9.7 kmh WSW 10.0 mph16.1 kmh 29.89 in1012.2 mb 0.00 in0.0 mm 0.00 in0.0 mm 0.00 in0.0 mm
04:15 AM 41.0°F5.0°C 38.6°F3.7°C 91% 7.0 mph WSW11.3 kmh WSW 10.0 mph16.1 kmh 29.89 in1012.2 mb 0.00 in0.0 mm 0.00 in0.0 mm 0.00 in0.0 mm
04:20 AM 41.1°F5.1°C 38.7°F3.7°C 91% 7.0 mph WSW11.3 kmh WSW 10.0 mph16.1 kmh 29.89 in1012.2 mb 0.00 in0.0 mm 0.00 in0.0 mm 0.00 in0.0 mm
04:25 AM 41.2°F5.1°C 38.8°F3.8°C 91% 8.0 mph WSW12.9 kmh WSW 12.0 mph19.3 kmh 29.90 in1012.5 mb 0.00 in0.0 mm 0.00 in0.0 mm 0.00 in0.0 mm
04:30 AM 41.2°F5.1°C 38.8°F3.8°C 91% 7.0 mph WSW11.3 kmh WSW 12.0 mph19.3 kmh 29.90 in1012.5 mb 0.00 in0.0 mm 0.00 in0.0 mm 0.00 in0.0 mm
04:35 AM 41.2°F5.1°C 38.8°F3.8°C 91% 3.0 mph WSW4.8 kmh WSW 12.0 mph19.3 kmh 29.91 in1012.9 mb 0.00 in0.0 mm 0.00 in0.0 mm 0.00 in0.0 mm
04:40 AM 41.1°F5.1°C 38.7°F3.7°C 91% 8.0 mph WSW12.9 kmh WSW 10.0 mph16.1 kmh 29.90 in1012.5 mb 0.00 in0.0 mm 0.00 in0.0 mm 0.00 in0.0 mm
04:45 AM 41.1°F5.1°C 38.7°F3.7°C 91% 6.0 mph WSW9.7 kmh WSW 10.0 mph16.1 kmh 29.90 in1012.5 mb 0.00 in0.0 mm 0.00 in0.0 mm 0.00 in0.0 mm
04:50 AM 41.0°F5.0°C 38.6°F3.7°C 91% 6.0 mph WSW9.7 kmh WSW 11.0 mph17.7 kmh 29.91 in1012.9 mb 0.00 in0.0 mm 0.00 in0.0 mm 0.00 in0.0 mm
04:55 AM 41.1°F5.1°C 38.7°F3.7°C 91% 3.0 mph WSW4.8 kmh WSW 9.0 mph14.5 kmh 29.91 in1012.9 mb 0.00 in0.0 mm 0.00 in0.0 mm 0.00 in0.0 mm
05:00 AM 41.0°F5.0°C 38.6°F3.7°C 91% 2.0 mph WSW3.2 kmh WSW 10.0 mph16.1 kmh 29.91 in1012.9 mb 0.00 in0.0 mm 0.00 in0.0 mm 0.00 in0.0 mm
05:05 AM 41.0°F5.0°C 38.6°F3.7°C 91% 5.0 mph WSW8.0 kmh WSW 10.0 mph16.1 kmh 29.91 in1012.9 mb 0.00 in0.0 mm 0.00 in0.0 mm 0.00 in0.0 mm
05:10 AM 41.1°F5.1°C 38.7°F3.7°C 91% 10.0 mph WSW16.1 kmh WSW 10.0 mph16.1 kmh 29.91 in1012.9 mb 0.00 in0.0 mm 0.00 in0.0 mm 0.00 in0.0 mm
05:15 AM 41.0°F5.0°C 38.6°F3.7°C 91% 7.0 mph WSW11.3 kmh WSW 11.0 mph17.7 kmh 29.92 in1013.2 mb 0.00 in0.0 mm 0.00 in0.0 mm 0.00 in0.0 mm
05:20 AM 41.0°F5.0°C 38.6°F3.7°C 91% 10.0 mph WSW16.1 kmh WSW 12.0 mph19.3 kmh 29.92 in1013.2 mb 0.00 in0.0 mm 0.00 in0.0 mm 0.00 in0.0 mm
05:25 AM 40.9°F4.9°C 38.2°F3.4°C 90% 7.0 mph WSW11.3 kmh WSW 11.0 mph17.7 kmh 29.93 in1013.5 mb 0.00 in0.0 mm 0.00 in0.0 mm 0.00 in0.0 mm
05:30 AM 40.9°F4.9°C 38.2°F3.4°C 90% 4.0 mph WSW6.4 kmh WSW 11.0 mph17.7 kmh 29.93 in1013.5 mb 0.00 in0.0 mm 0.00 in0.0 mm 0.00 in0.0 mm
05:35 AM 40.8°F4.9°C 38.1°F3.4°C 90% 8.0 mph WSW12.9 kmh WSW 11.0 mph17.7 kmh 29.94 in1013.9 mb 0.00 in0.0 mm 0.00 in0.0 mm 0.00 in0.0 mm
05:40 AM 40.7°F4.8°C 38.0°F3.3°C 90% 2.0 mph W3.2 kmh W 9.0 mph14.5 kmh 29.94 in1013.9 mb 0.00 in0.0 mm 0.00 in0.0 mm 0.00 in0.0 mm
05:45 AM 40.6°F4.8°C 37.9°F3.3°C 90% 8.0 mph WSW12.9 kmh WSW 12.0 mph19.3 kmh 29.94 in1013.9 mb 0.00 in0.0 mm 0.00 in0.0 mm 0.00 in0.0 mm
05:50 AM 40.4°F4.7°C 37.4°F3.0°C 89% 8.0 mph W12.9 kmh W 12.0 mph19.3 kmh 29.94 in1013.9 mb 0.00 in0.0 mm 0.00 in0.0 mm 0.00 in0.0 mm
05:55 AM 40.2°F4.6°C 37.2°F2.9°C 89% 9.0 mph WSW14.5 kmh WSW 16.0 mph25.7 kmh 29.95 in1014.2 mb 0.00 in0.0 mm 0.00 in0.0 mm 0.00 in0.0 mm
06:00 AM 40.1°F4.5°C 37.1°F2.8°C 89% 3.0 mph W4.8 kmh W 16.0 mph25.7 kmh 29.95 in1014.2 mb 0.00 in0.0 mm 0.00 in0.0 mm 0.00 in0.0 mm
06:05 AM 40.0°F4.4°C 37.0°F2.8°C 89% 3.0 mph W4.8 kmh W 16.0 mph25.7 kmh 29.96 in1014.6 mb 0.00 in0.0 mm 0.00 in0.0 mm 0.00 in0.0 mm
06:10 AM 40.0°F4.4°C 37.0°F2.8°C 89% 5.0 mph WSW8.0 kmh WSW 14.0 mph22.5 kmh 29.96 in1014.6 mb 0.00 in0.0 mm 0.00 in0.0 mm 0.00 in0.0 mm
06:15 AM 39.9°F4.4°C 36.9°F2.7°C 89% 11.0 mph WSW17.7 kmh WSW 14.0 mph22.5 kmh 29.97 in1014.9 mb 0.00 in0.0 mm 0.00 in0.0 mm 0.00 in0.0 mm
06:20 AM 39.9°F4.4°C 36.9°F2.7°C 89% 3.0 mph W4.8 kmh W 14.0 mph22.5 kmh 29.97 in1014.9 mb 0.00 in0.0 mm 0.00 in0.0 mm 0.00 in0.0 mm
06:25 AM 39.8°F4.3°C 36.8°F2.7°C 89% 4.0 mph W6.4 kmh W 10.0 mph16.1 kmh 29.97 in1014.9 mb 0.00 in0.0 mm 0.00 in0.0 mm 0.00 in0.0 mm
06:30 AM 39.8°F4.3°C 37.1°F2.8°C 90% 4.0 mph W6.4 kmh W 10.0 mph16.1 kmh 29.97 in1014.9 mb 0.00 in0.0 mm 0.00 in0.0 mm 0.00 in0.0 mm
06:35 AM 39.7°F4.3°C 37.0°F2.8°C 90% 1.0 mph W1.6 kmh W 11.0 mph17.7 kmh 29.97 in1014.9 mb 0.00 in0.0 mm 0.00 in0.0 mm 0.00 in0.0 mm
06:40 AM 39.7°F4.3°C 37.0°F2.8°C 90% 6.0 mph W9.7 kmh W 7.0 mph11.3 kmh 29.97 in1014.9 mb 0.00 in0.0 mm 0.00 in0.0 mm 0.00 in0.0 mm
06:45 AM 39.6°F4.2°C 36.9°F2.7°C 90% 3.0 mph WNW4.8 kmh WNW 10.0 mph16.1 kmh 29.97 in1014.9 mb 0.00 in0.0 mm 0.00 in0.0 mm 0.00 in0.0 mm
06:50 AM 39.6°F4.2°C 36.6°F2.6°C 89% 1.0 mph WNW1.6 kmh WNW 10.0 mph16.1 kmh 29.98 in1015.2 mb 0.00 in0.0 mm 0.00 in0.0 mm 0.00 in0.0 mm
06:55 AM 39.5°F4.2°C 36.5°F2.5°C 89% 5.0 mph WNW8.0 kmh WNW 5.0 mph8.0 kmh 29.99 in1015.6 mb 0.00 in0.0 mm 0.00 in0.0 mm 0.00 in0.0 mm
07:00 AM 39.5°F4.2°C 36.5°F2.5°C 89% Calm Calm 8.0 mph12.9 kmh 29.99 in1015.6 mb 0.00 in0.0 mm 0.00 in0.0 mm 0.00 in0.0 mm
07:05 AM 39.4°F4.1°C 36.4°F2.4°C 89% 3.0 mph W4.8 kmh W 8.0 mph12.9 kmh 29.98 in1015.2 mb 0.00 in0.0 mm 0.00 in0.0 mm 0.00 in0.0 mm
07:10 AM 39.4°F4.1°C 36.4°F2.4°C 89% 2.0 mph W3.2 kmh W 6.0 mph9.7 kmh 29.99 in1015.6 mb 0.00 in0.0 mm 0.00 in0.0 mm 0.00 in0.0 mm
07:15 AM 39.3°F4.1°C 36.3°F2.4°C 89% 3.0 mph W4.8 kmh W 6.0 mph9.7 kmh 29.99 in1015.6 mb 0.00 in0.0 mm 0.00 in0.0 mm 0.00 in0.0 mm
07:20 AM 39.3°F4.1°C 36.3°F2.4°C 89% 6.0 mph W9.7 kmh W 6.0 mph9.7 kmh 30.00 in1015.9 mb 0.00 in0.0 mm 0.00 in0.0 mm 0.00 in0.0 mm
07:25 AM 39.4°F4.1°C 36.4°F2.4°C 89% 6.0 mph W9.7 kmh W 7.0 mph11.3 kmh 30.00 in1015.9 mb 0.00 in0.0 mm 0.00 in0.0 mm 0.00 in0.0 mm
07:30 AM 39.6°F4.2°C 36.6°F2.6°C 89% 3.0 mph W4.8 kmh W 7.0 mph11.3 kmh 30.00 in1015.9 mb 0.00 in0.0 mm 0.00 in0.0 mm 0.00 in0.0 mm
07:35 AM 39.9°F4.4°C 36.6°F2.6°C 88% 7.0 mph W11.3 kmh W 7.0 mph11.3 kmh 30.00 in1015.9 mb 0.00 in0.0 mm 0.00 in0.0 mm 0.00 in0.0 mm
07:40 AM 40.1°F4.5°C 36.8°F2.7°C 88% 1.0 mph W1.6 kmh W 7.0 mph11.3 kmh 30.01 in1016.3 mb 0.00 in0.0 mm 0.00 in0.0 mm 0.00 in0.0 mm
07:45 AM 40.3°F4.6°C 36.8°F2.7°C 87% 8.0 mph W12.9 kmh W 8.0 mph12.9 kmh 30.02 in1016.6 mb 0.00 in0.0 mm 0.00 in0.0 mm 0.00 in0.0 mm
07:50 AM 40.5°F4.7°C 36.7°F2.6°C 86% 7.0 mph WNW11.3 kmh WNW 10.0 mph16.1 kmh 30.01 in1016.3 mb 0.00 in0.0 mm 0.00 in0.0 mm 0.00 in0.0 mm
07:55 AM 40.7°F4.8°C 36.6°F2.6°C 85% 6.0 mph W9.7 kmh W 8.0 mph12.9 kmh 30.02 in1016.6 mb 0.00 in0.0 mm 0.00 in0.0 mm 0.00 in0.0 mm
08:00 AM 40.9°F4.9°C 36.5°F2.5°C 84% 7.0 mph W11.3 kmh W 10.0 mph16.1 kmh 30.02 in1016.6 mb 0.00 in0.0 mm 0.00 in0.0 mm 0.00 in0.0 mm
08:05 AM 41.0°F5.0°C 36.2°F2.3°C 83% 6.0 mph W9.7 kmh W 12.0 mph19.3 kmh 30.02 in1016.6 mb 0.00 in0.0 mm 0.00 in0.0 mm 0.00 in0.0 mm
08:10 AM 41.1°F5.1°C 36.3°F2.4°C 83% 6.0 mph W9.7 kmh W 8.0 mph12.9 kmh 30.03 in1016.9 mb 0.00 in0.0 mm 0.00 in0.0 mm 0.00 in0.0 mm
08:15 AM 41.4°F5.2°C 36.3°F2.4°C 82% 4.0 mph WNW6.4 kmh WNW 11.0 mph17.7 kmh 30.03 in1016.9 mb 0.00 in0.0 mm 0.00 in0.0 mm 0.00 in0.0 mm
08:20 AM 41.7°F5.4°C 36.3°F2.4°C 81% 7.0 mph W11.3 kmh W 15.0 mph24.1 kmh 30.03 in1016.9 mb 0.00 in0.0 mm 0.00 in0.0 mm 0.00 in0.0 mm
08:25 AM 41.8°F5.4°C 36.1°F2.3°C 80% 8.0 mph W12.9 kmh W 14.0 mph22.5 kmh 30.04 in1017.3 mb 0.00 in0.0 mm 0.00 in0.0 mm 0.00 in0.0 mm
08:30 AM 42.0°F5.6°C 36.0°F2.2°C 79% 4.0 mph W6.4 kmh W 14.0 mph22.5 kmh 30.04 in1017.3 mb 0.00 in0.0 mm 0.00 in0.0 mm 0.00 in0.0 mm
08:35 AM 41.8°F5.4°C 35.5°F1.9°C 78% 7.0 mph WNW11.3 kmh WNW 18.0 mph29.0 kmh 30.04 in1017.3 mb 0.00 in0.0 mm 0.00 in0.0 mm 0.00 in0.0 mm
08:40 AM 42.0°F5.6°C 35.7°F2.1°C 78% 14.0 mph WNW22.5 kmh WNW 16.0 mph25.7 kmh 30.04 in1017.3 mb 0.00 in0.0 mm 0.00 in0.0 mm 0.00 in0.0 mm
08:45 AM 42.0°F5.6°C 35.3°F1.8°C 77% 10.0 mph WNW16.1 kmh WNW 21.0 mph33.8 kmh 30.04 in1017.3 mb 0.00 in0.0 mm 0.00 in0.0 mm 0.00 in0.0 mm
08:50 AM 41.8°F5.4°C 35.1°F1.7°C 77% 10.0 mph NW16.1 kmh NW 21.0 mph33.8 kmh 30.05 in1017.6 mb 0.00 in0.0 mm 0.00 in0.0 mm 0.00 in0.0 mm
08:55 AM 42.0°F5.6°C 35.3°F1.8°C 77% 4.0 mph WNW6.4 kmh WNW 12.0 mph19.3 kmh 30.05 in1017.6 mb 0.00 in0.0 mm 0.00 in0.0 mm 0.00 in0.0 mm
09:00 AM 42.3°F5.7°C 35.6°F2.0°C 77% 7.0 mph W11.3 kmh W 15.0 mph24.1 kmh 30.05 in1017.6 mb 0.00 in0.0 mm 0.00 in0.0 mm 0.00 in0.0 mm
09:05 AM 42.2°F5.7°C 35.2°F1.8°C 76% 10.0 mph WSW16.1 kmh WSW 15.0 mph24.1 kmh 30.05 in1017.6 mb 0.00 in0.0 mm 0.00 in0.0 mm 0.00 in0.0 mm
09:10 AM 42.7°F5.9°C 35.7°F2.1°C 76% 11.0 mph W17.7 kmh W 14.0 mph22.5 kmh 30.05 in1017.6 mb 0.00 in0.0 mm 0.00 in0.0 mm 0.00 in0.0 mm
09:15 AM 42.8°F6.0°C 35.4°F1.9°C 75% 12.0 mph WSW19.3 kmh WSW 20.0 mph32.2 kmh 30.05 in1017.6 mb 0.00 in0.0 mm 0.00 in0.0 mm 0.00 in0.0 mm
09:20 AM 42.6°F5.9°C 35.2°F1.8°C 75% 10.0 mph NW16.1 kmh NW 20.0 mph32.2 kmh 30.05 in1017.6 mb 0.00 in0.0 mm 0.00 in0.0 mm 0.00 in0.0 mm
09:25 AM 42.7°F5.9°C 35.0°F1.7°C 74% 10.0 mph WSW16.1 kmh WSW 22.0 mph35.4 kmh 30.06 in1017.9 mb 0.00 in0.0 mm 0.00 in0.0 mm 0.00 in0.0 mm
09:30 AM 42.6°F5.9°C 34.9°F1.6°C 74% 18.0 mph WNW29.0 kmh WNW 22.0 mph35.4 kmh 30.06 in1017.9 mb 0.00 in0.0 mm 0.00 in0.0 mm 0.00 in0.0 mm
09:35 AM 42.6°F5.9°C 34.6°F1.4°C 73% 17.0 mph WNW27.4 kmh WNW 22.0 mph35.4 kmh 30.06 in1017.9 mb 0.00 in0.0 mm 0.00 in0.0 mm 0.00 in0.0 mm
09:40 AM 42.7°F5.9°C 34.7°F1.5°C 73% 17.0 mph WSW27.4 kmh WSW 21.0 mph33.8 kmh 30.06 in1017.9 mb 0.00 in0.0 mm 0.00 in0.0 mm 0.00 in0.0 mm
09:45 AM 42.9°F6.1°C 34.9°F1.6°C 73% 10.0 mph W16.1 kmh W 21.0 mph33.8 kmh 30.06 in1017.9 mb 0.00 in0.0 mm 0.00 in0.0 mm 0.00 in0.0 mm
09:50 AM 43.0°F6.1°C 34.6°F1.4°C 72% 8.0 mph W12.9 kmh W 21.0 mph33.8 kmh 30.06 in1017.9 mb 0.00 in0.0 mm 0.00 in0.0 mm 0.00 in0.0 mm
09:55 AM 42.9°F6.1°C 34.2°F1.2°C 71% 11.0 mph WNW17.7 kmh WNW 18.0 mph29.0 kmh 30.06 in1017.9 mb 0.00 in0.0 mm 0.00 in0.0 mm 0.00 in0.0 mm
10:00 AM 42.9°F6.1°C 34.2°F1.2°C 71% 14.0 mph WNW22.5 kmh WNW 19.0 mph30.6 kmh 30.07 in1018.3 mb 0.00 in0.0 mm 0.00 in0.0 mm 0.00 in0.0 mm
10:05 AM 42.9°F6.1°C 33.4°F0.8°C 69% 11.0 mph WNW17.7 kmh WNW 19.0 mph30.6 kmh 30.07 in1018.3 mb 0.00 in0.0 mm 0.00 in0.0 mm 0.00 in0.0 mm
10:10 AM 43.1°F6.2°C 34.0°F1.1°C 70% 12.0 mph WNW19.3 kmh WNW 19.0 mph30.6 kmh 30.07 in1018.3 mb 0.00 in0.0 mm 0.00 in0.0 mm 0.00 in0.0 mm
10:15 AM 43.1°F6.2°C 33.3°F0.7°C 68% 15.0 mph W24.1 kmh W 22.0 mph35.4 kmh 30.07 in1018.3 mb 0.00 in0.0 mm 0.00 in0.0 mm 0.00 in0.0 mm
10:20 AM 43.4°F6.3°C 33.9°F1.1°C 69% 7.0 mph WNW11.3 kmh WNW 22.0 mph35.4 kmh 30.07 in1018.3 mb 0.00 in0.0 mm 0.00 in0.0 mm 0.00 in0.0 mm
10:25 AM 42.9°F6.1°C 32.3°F0.2°C 66% 6.0 mph W9.7 kmh W 16.0 mph25.7 kmh 30.07 in1018.3 mb 0.00 in0.0 mm 0.00 in0.0 mm 0.00 in0.0 mm
10:30 AM 43.6°F6.4°C 33.4°F0.8°C 67% 7.0 mph W11.3 kmh W 16.0 mph25.7 kmh 30.07 in1018.3 mb 0.00 in0.0 mm 0.00 in0.0 mm 0.00 in0.0 mm
10:35 AM 43.1°F6.2°C 32.9°F0.5°C 67% 7.0 mph WNW11.3 kmh WNW 16.0 mph25.7 kmh 30.07 in1018.3 mb 0.00 in0.0 mm 0.00 in0.0 mm 0.00 in0.0 mm
10:40 AM 43.9°F6.6°C 33.7°F0.9°C 67% 14.0 mph NW22.5 kmh NW 14.0 mph22.5 kmh 30.07 in1018.3 mb 0.00 in0.0 mm 0.00 in0.0 mm 0.00 in0.0 mm
10:45 AM 43.6°F6.4°C 32.6°F0.3°C 65% 11.0 mph NW17.7 kmh NW 17.0 mph27.4 kmh 30.08 in1018.6 mb 0.00 in0.0 mm 0.00 in0.0 mm 0.00 in0.0 mm
10:50 AM 43.4°F6.3°C 32.8°F0.4°C 66% 12.0 mph NW19.3 kmh NW 21.0 mph33.8 kmh 30.08 in1018.6 mb 0.00 in0.0 mm 0.00 in0.0 mm 0.00 in0.0 mm
10:55 AM 43.4°F6.3°C 32.4°F0.2°C 65% 12.0 mph WNW19.3 kmh WNW 19.0 mph30.6 kmh 30.08 in1018.6 mb 0.00 in0.0 mm 0.00 in0.0 mm 0.00 in0.0 mm
11:00 AM 43.2°F6.2°C 32.6°F0.3°C 66% 14.0 mph WNW22.5 kmh WNW 22.0 mph35.4 kmh 30.08 in1018.6 mb 0.00 in0.0 mm 0.00 in0.0 mm 0.00 in0.0 mm
11:05 AM 43.3°F6.3°C 32.3°F0.2°C 65% 12.0 mph WNW19.3 kmh WNW 22.0 mph35.4 kmh 30.08 in1018.6 mb 0.00 in0.0 mm 0.00 in0.0 mm 0.00 in0.0 mm
11:10 AM 43.6°F6.4°C 32.2°F0.1°C 64% 15.0 mph WNW24.1 kmh WNW 16.0 mph25.7 kmh 30.08 in1018.6 mb 0.00 in0.0 mm 0.00 in0.0 mm 0.00 in0.0 mm
11:15 AM 43.4°F6.3°C 32.1°F0.1°C 64% 16.0 mph WNW25.7 kmh WNW 21.0 mph33.8 kmh 30.08 in1018.6 mb 0.00 in0.0 mm 0.00 in0.0 mm 0.00 in0.0 mm
11:20 AM 43.3°F6.3°C 31.2°F-0.4°C 62% 9.0 mph W14.5 kmh W 21.0 mph33.8 kmh 30.08 in1018.6 mb 0.00 in0.0 mm 0.00 in0.0 mm 0.00 in0.0 mm
11:25 AM 42.8°F6.0°C 30.7°F-0.7°C 62% 11.0 mph W17.7 kmh W 18.0 mph29.0 kmh 30.08 in1018.6 mb 0.00 in0.0 mm 0.00 in0.0 mm 0.00 in0.0 mm
11:30 AM 43.4°F6.3°C 30.9°F-0.6°C 61% 8.0 mph WNW12.9 kmh WNW 22.0 mph35.4 kmh 30.09 in1019.0 mb 0.00 in0.0 mm 0.00 in0.0 mm 0.00 in0.0 mm
11:35 AM 43.2°F6.2°C 30.7°F-0.7°C 61% 16.0 mph WNW25.7 kmh WNW 22.0 mph35.4 kmh 30.09 in1019.0 mb 0.00 in0.0 mm 0.00 in0.0 mm 0.00 in0.0 mm
11:40 AM 43.3°F6.3°C 30.4°F-0.9°C 60% 9.0 mph WNW14.5 kmh WNW 20.0 mph32.2 kmh 30.09 in1019.0 mb 0.00 in0.0 mm 0.00 in0.0 mm 0.00 in0.0 mm
11:45 AM 43.4°F6.3°C 30.5°F-0.8°C 60% 14.0 mph NW22.5 kmh NW 20.0 mph32.2 kmh 30.09 in1019.0 mb 0.00 in0.0 mm 0.00 in0.0 mm 0.00 in0.0 mm
11:50 AM 43.3°F6.3°C 30.8°F-0.7°C 61% 19.0 mph WNW30.6 kmh WNW 20.0 mph32.2 kmh 30.09 in1019.0 mb 0.00 in0.0 mm 0.00 in0.0 mm 0.00 in0.0 mm
11:55 AM 43.4°F6.3°C 30.9°F-0.6°C 61% 9.0 mph WNW14.5 kmh WNW 19.0 mph30.6 kmh 30.09 in1019.0 mb 0.00 in0.0 mm 0.00 in0.0 mm 0.00 in0.0 mm
12:00 PM 43.3°F6.3°C 30.0°F-1.1°C 59% 7.0 mph WNW11.3 kmh WNW 19.0 mph30.6 kmh 30.09 in1019.0 mb 0.00 in0.0 mm 0.00 in0.0 mm 0.00 in0.0 mm
12:05 PM 43.6°F6.4°C 30.7°F-0.7°C 60% 7.0 mph WNW11.3 kmh WNW 21.0 mph33.8 kmh 30.09 in1019.0 mb 0.00 in0.0 mm 0.00 in0.0 mm 0.00 in0.0 mm
12:10 PM 43.5°F6.4°C 30.6°F-0.8°C 60% 7.0 mph WNW11.3 kmh WNW 20.0 mph32.2 kmh 30.09 in1019.0 mb 0.00 in0.0 mm 0.00 in0.0 mm 0.00 in0.0 mm
12:15 PM 43.8°F6.6°C 30.4°F-0.9°C 59% 9.0 mph NW14.5 kmh NW 20.0 mph32.2 kmh 30.09 in1019.0 mb 0.00 in0.0 mm 0.00 in0.0 mm 0.00 in0.0 mm
12:20 PM 44.1°F6.7°C 30.3°F-0.9°C 58% 7.0 mph WNW11.3 kmh WNW 20.0 mph32.2 kmh 30.10 in1019.3 mb 0.00 in0.0 mm 0.00 in0.0 mm 0.00 in0.0 mm
12:25 PM 43.7°F6.5°C 29.5°F-1.4°C 57% 12.0 mph NW19.3 kmh NW 18.0 mph29.0 kmh 30.10 in1019.3 mb 0.00 in0.0 mm 0.00 in0.0 mm 0.00 in0.0 mm
12:30 PM 43.9°F6.6°C 30.1°F-1.1°C 58% 7.0 mph WNW11.3 kmh WNW 18.0 mph29.0 kmh 30.10 in1019.3 mb 0.00 in0.0 mm 0.00 in0.0 mm 0.00 in0.0 mm
12:35 PM 43.7°F6.5°C 29.5°F-1.4°C 57% 12.0 mph W19.3 kmh W 21.0 mph33.8 kmh 30.10 in1019.3 mb 0.00 in0.0 mm 0.00 in0.0 mm 0.00 in0.0 mm
12:40 PM 44.1°F6.7°C 29.9°F-1.2°C 57% 7.0 mph NW11.3 kmh NW 14.0 mph22.5 kmh 30.09 in1019.0 mb 0.00 in0.0 mm 0.00 in0.0 mm 0.00 in0.0 mm
12:45 PM 43.9°F6.6°C 29.2°F-1.6°C 56% 11.0 mph NW17.7 kmh NW 18.0 mph29.0 kmh 30.10 in1019.3 mb 0.00 in0.0 mm 0.00 in0.0 mm 0.00 in0.0 mm
12:50 PM 43.9°F6.6°C 29.7°F-1.3°C 57% 10.0 mph WNW16.1 kmh WNW 18.0 mph29.0 kmh 30.10 in1019.3 mb 0.00 in0.0 mm 0.00 in0.0 mm 0.00 in0.0 mm
12:55 PM 43.8°F6.6°C 29.6°F-1.3°C 57% 14.0 mph NW22.5 kmh NW 14.0 mph22.5 kmh 30.09 in1019.0 mb 0.00 in0.0 mm 0.00 in0.0 mm 0.00 in0.0 mm
01:00 PM 43.8°F6.6°C 29.6°F-1.3°C 57% 11.0 mph WNW17.7 kmh WNW 18.0 mph29.0 kmh 30.09 in1019.0 mb 0.00 in0.0 mm 0.00 in0.0 mm 0.00 in0.0 mm
01:05 PM 44.0°F6.7°C 29.8°F-1.2°C 57% 8.0 mph W12.9 kmh W 18.0 mph29.0 kmh 30.09 in1019.0 mb 0.00 in0.0 mm 0.00 in0.0 mm 0.00 in0.0 mm
01:10 PM 44.1°F6.7°C 29.4°F-1.4°C 56% 7.0 mph NW11.3 kmh NW 17.0 mph27.4 kmh 30.09 in1019.0 mb 0.00 in0.0 mm 0.00 in0.0 mm 0.00 in0.0 mm
01:15 PM 44.2°F6.8°C 29.5°F-1.4°C 56% 9.0 mph WNW14.5 kmh WNW 17.0 mph27.4 kmh 30.08 in1018.6 mb 0.00 in0.0 mm 0.00 in0.0 mm 0.00 in0.0 mm
01:20 PM 44.4°F6.9°C 28.8°F-1.8°C 54% 7.0 mph NW11.3 kmh NW 17.0 mph27.4 kmh 30.08 in1018.6 mb 0.00 in0.0 mm 0.00 in0.0 mm 0.00 in0.0 mm
01:25 PM 44.4°F6.9°C 29.3°F-1.5°C 55% 8.0 mph W12.9 kmh W 18.0 mph29.0 kmh 30.08 in1018.6 mb 0.00 in0.0 mm 0.00 in0.0 mm 0.00 in0.0 mm
01:30 PM 44.2°F6.8°C 30.4°F-0.9°C 58% 12.0 mph W19.3 kmh W 18.0 mph29.0 kmh 30.08 in1018.6 mb 0.00 in0.0 mm 0.00 in0.0 mm 0.00 in0.0 mm
01:35 PM 44.1°F6.7°C 29.9°F-1.2°C 57% 8.0 mph NW12.9 kmh NW 18.0 mph29.0 kmh 30.08 in1018.6 mb 0.00 in0.0 mm 0.00 in0.0 mm 0.00 in0.0 mm
01:40 PM 43.8°F6.6°C 29.1°F-1.6°C 56% 18.0 mph WNW29.0 kmh WNW 18.0 mph29.0 kmh 30.08 in1018.6 mb 0.00 in0.0 mm 0.00 in0.0 mm 0.00 in0.0 mm
01:45 PM 43.6°F6.4°C 29.0°F-1.7°C 56% 12.0 mph WNW19.3 kmh WNW 18.0 mph29.0 kmh 30.07 in1018.3 mb 0.00 in0.0 mm 0.00 in0.0 mm 0.00 in0.0 mm
01:50 PM 43.1°F6.2°C 28.5°F-1.9°C 56% 10.0 mph WNW16.1 kmh WNW 19.0 mph30.6 kmh 30.07 in1018.3 mb 0.00 in0.0 mm 0.00 in0.0 mm 0.00 in0.0 mm
01:55 PM 43.7°F6.5°C 29.1°F-1.6°C 56% 11.0 mph NW17.7 kmh NW 16.0 mph25.7 kmh 30.07 in1018.3 mb 0.00 in0.0 mm 0.00 in0.0 mm 0.00 in0.0 mm
02:00 PM 43.4°F6.3°C 28.3°F-2.1°C 55% 8.0 mph NW12.9 kmh NW 16.0 mph25.7 kmh 30.08 in1018.6 mb 0.00 in0.0 mm 0.00 in0.0 mm 0.00 in0.0 mm
02:05 PM 43.3°F6.3°C 27.8°F-2.3°C 54% 6.0 mph W9.7 kmh W 17.0 mph27.4 kmh 30.08 in1018.6 mb 0.00 in0.0 mm 0.00 in0.0 mm 0.00 in0.0 mm
02:10 PM 43.6°F6.4°C 28.5°F-1.9°C 55% 6.0 mph W9.7 kmh W 11.0 mph17.7 kmh 30.08 in1018.6 mb 0.00 in0.0 mm 0.00 in0.0 mm 0.00 in0.0 mm
02:15 PM 43.2°F6.2°C 27.7°F-2.4°C 54% 7.0 mph WNW11.3 kmh WNW 16.0 mph25.7 kmh 30.08 in1018.6 mb 0.00 in0.0 mm 0.00 in0.0 mm 0.00 in0.0 mm
02:20 PM 43.4°F6.3°C 27.4°F-2.6°C 53% 8.0 mph W12.9 kmh W 16.0 mph25.7 kmh 30.09 in1019.0 mb 0.00 in0.0 mm 0.00 in0.0 mm 0.00 in0.0 mm
02:25 PM 43.3°F6.3°C 27.3°F-2.6°C 53% 6.0 mph W9.7 kmh W 12.0 mph19.3 kmh 30.09 in1019.0 mb 0.00 in0.0 mm 0.00 in0.0 mm 0.00 in0.0 mm
02:30 PM 43.2°F6.2°C 26.3°F-3.2°C 51% 4.0 mph W6.4 kmh W 18.0 mph29.0 kmh 30.09 in1019.0 mb 0.00 in0.0 mm 0.00 in0.0 mm 0.00 in0.0 mm
02:35 PM 43.4°F6.3°C 27.4°F-2.6°C 53% 8.0 mph WNW12.9 kmh WNW 18.0 mph29.0 kmh 30.09 in1019.0 mb 0.00 in0.0 mm 0.00 in0.0 mm 0.00 in0.0 mm
02:40 PM 43.3°F6.3°C 26.4°F-3.1°C 51% 7.0 mph WNW11.3 kmh WNW 14.0 mph22.5 kmh 30.09 in1019.0 mb 0.00 in0.0 mm 0.00 in0.0 mm 0.00 in0.0 mm
02:45 PM 43.0°F6.1°C 26.6°F-3.0°C 52% 11.0 mph WNW17.7 kmh WNW 17.0 mph27.4 kmh 30.09 in1019.0 mb 0.00 in0.0 mm 0.00 in0.0 mm 0.00 in0.0 mm
02:50 PM 43.5°F6.4°C 28.0°F-2.2°C 54% 10.0 mph WNW16.1 kmh WNW 17.0 mph27.4 kmh 30.09 in1019.0 mb 0.00 in0.0 mm 0.00 in0.0 mm 0.00 in0.0 mm
02:55 PM 43.1°F6.2°C 25.7°F-3.5°C 50% 9.0 mph WNW14.5 kmh WNW 16.0 mph25.7 kmh 30.08 in1018.6 mb 0.00 in0.0 mm 0.00 in0.0 mm 0.00 in0.0 mm
03:00 PM 43.2°F6.2°C 27.7°F-2.4°C 54% 7.0 mph W11.3 kmh W 16.0 mph25.7 kmh 30.09 in1019.0 mb 0.00 in0.0 mm 0.00 in0.0 mm 0.00 in0.0 mm
03:05 PM 42.9°F6.1°C 26.0°F-3.3°C 51% 4.0 mph WNW6.4 kmh WNW 16.0 mph25.7 kmh 30.09 in1019.0 mb 0.00 in0.0 mm 0.00 in0.0 mm 0.00 in0.0 mm
03:10 PM 42.8°F6.0°C 25.9°F-3.4°C 51% 7.0 mph WNW11.3 kmh WNW 11.0 mph17.7 kmh 30.09 in1019.0 mb 0.00 in0.0 mm 0.00 in0.0 mm 0.00 in0.0 mm
03:15 PM 42.8°F6.0°C 25.5°F-3.6°C 50% 11.0 mph W17.7 kmh W 12.0 mph19.3 kmh 30.09 in1019.0 mb 0.00 in0.0 mm 0.00 in0.0 mm 0.00 in0.0 mm
03:20 PM 43.1°F6.2°C 25.7°F-3.5°C 50% 7.0 mph WNW11.3 kmh WNW 14.0 mph22.5 kmh 30.10 in1019.3 mb 0.00 in0.0 mm 0.00 in0.0 mm 0.00 in0.0 mm
03:25 PM 42.9°F6.1°C 25.6°F-3.6°C 50% 5.0 mph WNW8.0 kmh WNW 8.0 mph12.9 kmh 30.10 in1019.3 mb 0.00 in0.0 mm 0.00 in0.0 mm 0.00 in0.0 mm
03:30 PM 42.9°F6.1°C 25.6°F-3.6°C 50% 7.0 mph WNW11.3 kmh WNW 10.0 mph16.1 kmh 30.10 in1019.3 mb 0.00 in0.0 mm 0.00 in0.0 mm 0.00 in0.0 mm
03:35 PM 43.2°F6.2°C 24.4°F-4.2°C 47% 5.0 mph NW8.0 kmh NW 12.0 mph19.3 kmh 30.09 in1019.0 mb 0.00 in0.0 mm 0.00 in0.0 mm 0.00 in0.0 mm
03:40 PM 43.1°F6.2°C 24.8°F-4.0°C 48% 7.0 mph W11.3 kmh W 11.0 mph17.7 kmh 30.09 in1019.0 mb 0.00 in0.0 mm 0.00 in0.0 mm 0.00 in0.0 mm
03:45 PM 43.3°F6.3°C 25.4°F-3.7°C 49% 8.0 mph W12.9 kmh W 12.0 mph19.3 kmh 30.09 in1019.0 mb 0.00 in0.0 mm 0.00 in0.0 mm 0.00 in0.0 mm
03:50 PM 43.0°F6.1°C 24.2°F-4.3°C 47% 9.0 mph NW14.5 kmh NW 13.0 mph20.9 kmh 30.09 in1019.0 mb 0.00 in0.0 mm 0.00 in0.0 mm 0.00 in0.0 mm
03:55 PM 42.9°F6.1°C 24.1°F-4.4°C 47% 4.0 mph WNW6.4 kmh WNW 8.0 mph12.9 kmh 30.09 in1019.0 mb 0.00 in0.0 mm 0.00 in0.0 mm 0.00 in0.0 mm
04:00 PM 42.9°F6.1°C 24.6°F-4.1°C 48% 10.0 mph NW16.1 kmh NW 13.0 mph20.9 kmh 30.09 in1019.0 mb 0.00 in0.0 mm 0.00 in0.0 mm 0.00 in0.0 mm
04:05 PM 42.8°F6.0°C 23.5°F-4.7°C 46% 7.0 mph NW11.3 kmh NW 16.0 mph25.7 kmh 30.09 in1019.0 mb 0.00 in0.0 mm 0.00 in0.0 mm 0.00 in0.0 mm
04:10 PM 42.9°F6.1°C 25.1°F-3.8°C 49% 9.0 mph NW14.5 kmh NW 14.0 mph22.5 kmh 30.09 in1019.0 mb 0.00 in0.0 mm 0.00 in0.0 mm 0.00 in0.0 mm
04:15 PM 42.8°F6.0°C 24.0°F-4.4°C 47% 8.0 mph NW12.9 kmh NW 14.0 mph22.5 kmh 30.09 in1019.0 mb 0.00 in0.0 mm 0.00 in0.0 mm 0.00 in0.0 mm
04:20 PM 42.8°F6.0°C 25.0°F-3.9°C 49% 6.0 mph NW9.7 kmh NW 14.0 mph22.5 kmh 30.09 in1019.0 mb 0.00 in0.0 mm 0.00 in0.0 mm 0.00 in0.0 mm
04:25 PM 42.8°F6.0°C 25.0°F-3.9°C 49% 8.0 mph NW12.9 kmh NW 12.0 mph19.3 kmh 30.09 in1019.0 mb 0.00 in0.0 mm 0.00 in0.0 mm 0.00 in0.0 mm
04:30 PM 42.8°F6.0°C 25.9°F-3.4°C 51% 4.0 mph NW6.4 kmh NW 12.0 mph19.3 kmh 30.09 in1019.0 mb 0.00 in0.0 mm 0.00 in0.0 mm 0.00 in0.0 mm
04:35 PM 42.8°F6.0°C 27.3°F-2.6°C 54% 6.0 mph NW9.7 kmh NW 12.0 mph19.3 kmh 30.09 in1019.0 mb 0.00 in0.0 mm 0.00 in0.0 mm 0.00 in0.0 mm
04:40 PM 42.6°F5.9°C 25.8°F-3.4°C 51% 4.0 mph NW6.4 kmh NW 7.0 mph11.3 kmh 30.09 in1019.0 mb 0.00 in0.0 mm 0.00 in0.0 mm 0.00 in0.0 mm
04:45 PM 42.6°F5.9°C 26.2°F-3.2°C 52% 5.0 mph NW8.0 kmh NW 8.0 mph12.9 kmh 30.10 in1019.3 mb 0.00 in0.0 mm 0.00 in0.0 mm 0.00 in0.0 mm
04:50 PM 42.6°F5.9°C 25.8°F-3.4°C 51% 7.0 mph NW11.3 kmh NW 8.0 mph12.9 kmh 30.10 in1019.3 mb 0.00 in0.0 mm 0.00 in0.0 mm 0.00 in0.0 mm
04:55 PM 42.5°F5.8°C 26.6°F-3.0°C 53% 6.0 mph NW9.7 kmh NW 9.0 mph14.5 kmh 30.10 in1019.3 mb 0.00 in0.0 mm 0.00 in0.0 mm 0.00 in0.0 mm
05:00 PM 42.4°F5.8°C 27.4°F-2.6°C 55% 3.0 mph NW4.8 kmh NW 9.0 mph14.5 kmh 30.10 in1019.3 mb 0.00 in0.0 mm 0.00 in0.0 mm 0.00 in0.0 mm
05:05 PM 42.4°F5.8°C 27.4°F-2.6°C 55% 6.0 mph NW9.7 kmh NW 9.0 mph14.5 kmh 30.10 in1019.3 mb 0.00 in0.0 mm 0.00 in0.0 mm 0.00 in0.0 mm
05:10 PM 42.3°F5.7°C 26.9°F-2.8°C 54% 3.0 mph NW4.8 kmh NW 7.0 mph11.3 kmh 30.10 in1019.3 mb 0.00 in0.0 mm 0.00 in0.0 mm 0.00 in0.0 mm
05:15 PM 42.2°F5.7°C 27.6°F-2.4°C 56% 4.0 mph NW6.4 kmh NW 9.0 mph14.5 kmh 30.10 in1019.3 mb 0.00 in0.0 mm 0.00 in0.0 mm 0.00 in0.0 mm
05:20 PM 42.2°F5.7°C 27.2°F-2.7°C 55% 7.0 mph NW11.3 kmh NW 9.0 mph14.5 kmh 30.10 in1019.3 mb 0.00 in0.0 mm 0.00 in0.0 mm 0.00 in0.0 mm
05:25 PM 42.2°F5.7°C 27.6°F-2.4°C 56% 3.0 mph NW4.8 kmh NW 5.0 mph8.0 kmh 30.10 in1019.3 mb 0.00 in0.0 mm 0.00 in0.0 mm 0.00 in0.0 mm
05:30 PM 42.1°F5.6°C 27.1°F-2.7°C 55% 4.0 mph NW6.4 kmh NW 8.0 mph12.9 kmh 30.10 in1019.3 mb 0.00 in0.0 mm 0.00 in0.0 mm 0.00 in0.0 mm
05:35 PM 42.0°F5.6°C 27.5°F-2.5°C 56% 3.0 mph NW4.8 kmh NW 8.0 mph12.9 kmh 30.10 in1019.3 mb 0.00 in0.0 mm 0.00 in0.0 mm 0.00 in0.0 mm
05:40 PM 41.9°F5.5°C 27.8°F-2.3°C 57% 4.0 mph NW6.4 kmh NW 5.0 mph8.0 kmh 30.10 in1019.3 mb 0.00 in0.0 mm 0.00 in0.0 mm 0.00 in0.0 mm
05:45 PM 41.8°F5.4°C 27.7°F-2.4°C 57% 4.0 mph NW6.4 kmh NW 9.0 mph14.5 kmh 30.10 in1019.3 mb 0.00 in0.0 mm 0.00 in0.0 mm 0.00 in0.0 mm
05:50 PM 41.7°F5.4°C 27.6°F-2.4°C 57% 1.0 mph NW1.6 kmh NW 9.0 mph14.5 kmh 30.10 in1019.3 mb 0.00 in0.0 mm 0.00 in0.0 mm 0.00 in0.0 mm
05:55 PM 41.6°F5.3°C 27.5°F-2.5°C 57% 4.0 mph NW6.4 kmh NW 7.0 mph11.3 kmh 30.11 in1019.6 mb 0.00 in0.0 mm 0.00 in0.0 mm 0.00 in0.0 mm
06:00 PM 41.5°F5.3°C 28.3°F-2.1°C 59% 3.0 mph NW4.8 kmh NW 7.0 mph11.3 kmh 30.11 in1019.6 mb 0.00 in0.0 mm 0.00 in0.0 mm 0.00 in0.0 mm
06:05 PM 41.4°F5.2°C 27.8°F-2.3°C 58% 4.0 mph NW6.4 kmh NW 8.0 mph12.9 kmh 30.11 in1019.6 mb 0.00 in0.0 mm 0.00 in0.0 mm 0.00 in0.0 mm
06:10 PM 41.3°F5.2°C 27.7°F-2.4°C 58% 2.0 mph NW3.2 kmh NW 5.0 mph8.0 kmh 30.12 in1020.0 mb 0.00 in0.0 mm 0.00 in0.0 mm 0.00 in0.0 mm
06:15 PM 41.3°F5.2°C 28.1°F-2.2°C 59% 1.0 mph NW1.6 kmh NW 5.0 mph8.0 kmh 30.12 in1020.0 mb 0.00 in0.0 mm 0.00 in0.0 mm 0.00 in0.0 mm
06:20 PM 41.2°F5.1°C 28.0°F-2.2°C 59% Calm Calm 5.0 mph8.0 kmh 30.13 in1020.3 mb 0.00 in0.0 mm 0.00 in0.0 mm 0.00 in0.0 mm
06:25 PM 41.1°F5.1°C 27.5°F-2.5°C 58% 1.0 mph NW1.6 kmh NW 3.0 mph4.8 kmh 30.13 in1020.3 mb 0.00 in0.0 mm 0.00 in0.0 mm 0.00 in0.0 mm
06:30 PM 41.1°F5.1°C 27.9°F-2.3°C 59% 2.0 mph NW3.2 kmh NW 4.0 mph6.4 kmh 30.12 in1020.0 mb 0.00 in0.0 mm 0.00 in0.0 mm 0.00 in0.0 mm
06:35 PM 41.0°F5.0°C 28.2°F-2.1°C 60% 2.0 mph NW3.2 kmh NW 4.0 mph6.4 kmh 30.12 in1020.0 mb 0.00 in0.0 mm 0.00 in0.0 mm 0.00 in0.0 mm
06:40 PM 40.9°F4.9°C 27.7°F-2.4°C 59% 1.0 mph NW1.6 kmh NW 2.0 mph3.2 kmh 30.13 in1020.3 mb 0.00 in0.0 mm 0.00 in0.0 mm 0.00 in0.0 mm
06:45 PM 40.8°F4.9°C 27.6°F-2.4°C 59% 2.0 mph NW3.2 kmh NW 4.0 mph6.4 kmh 30.12 in1020.0 mb 0.00 in0.0 mm 0.00 in0.0 mm 0.00 in0.0 mm
06:50 PM 40.7°F4.8°C 27.5°F-2.5°C 59% 1.0 mph NW1.6 kmh NW 4.0 mph6.4 kmh 30.13 in1020.3 mb 0.00 in0.0 mm 0.00 in0.0 mm 0.00 in0.0 mm
06:55 PM 40.7°F4.8°C 27.5°F-2.5°C 59% 1.0 mph NW1.6 kmh NW 4.0 mph6.4 kmh 30.13 in1020.3 mb 0.00 in0.0 mm 0.00 in0.0 mm 0.00 in0.0 mm
07:00 PM 40.7°F4.8°C 27.9°F-2.3°C 60% Calm Calm 4.0 mph6.4 kmh 30.13 in1020.3 mb 0.00 in0.0 mm 0.00 in0.0 mm 0.00 in0.0 mm
07:05 PM 40.6°F4.8°C 27.8°F-2.3°C 60% 3.0 mph NW4.8 kmh NW 4.0 mph6.4 kmh 30.13 in1020.3 mb 0.00 in0.0 mm 0.00 in0.0 mm 0.00 in0.0 mm
07:10 PM 40.5°F4.7°C 27.7°F-2.4°C 60% 4.0 mph NW6.4 kmh NW 5.0 mph8.0 kmh 30.13 in1020.3 mb 0.00 in0.0 mm 0.00 in0.0 mm 0.00 in0.0 mm
07:15 PM 40.5°F4.7°C 28.1°F-2.2°C 61% 5.0 mph NW8.0 kmh NW 7.0 mph11.3 kmh 30.13 in1020.3 mb 0.00 in0.0 mm 0.00 in0.0 mm 0.00 in0.0 mm
07:20 PM 40.5°F4.7°C 28.5°F-1.9°C 62% 4.0 mph NW6.4 kmh NW 8.0 mph12.9 kmh 30.13 in1020.3 mb 0.00 in0.0 mm 0.00 in0.0 mm 0.00 in0.0 mm
07:25 PM 40.5°F4.7°C 28.1°F-2.2°C 61% 5.0 mph NW8.0 kmh NW 7.0 mph11.3 kmh 30.13 in1020.3 mb 0.00 in0.0 mm 0.00 in0.0 mm 0.00 in0.0 mm
07:30 PM 40.5°F4.7°C 27.7°F-2.4°C 60% 7.0 mph NW11.3 kmh NW 8.0 mph12.9 kmh 30.13 in1020.3 mb 0.00 in0.0 mm 0.00 in0.0 mm 0.00 in0.0 mm
07:35 PM 40.6°F4.8°C 27.8°F-2.3°C 60% 5.0 mph NW8.0 kmh NW 9.0 mph14.5 kmh 30.13 in1020.3 mb 0.00 in0.0 mm 0.00 in0.0 mm 0.00 in0.0 mm
07:40 PM 40.7°F4.8°C 27.5°F-2.5°C 59% 10.0 mph NW16.1 kmh NW 11.0 mph17.7 kmh 30.13 in1020.3 mb 0.00 in0.0 mm 0.00 in0.0 mm 0.00 in0.0 mm
07:45 PM 40.7°F4.8°C 27.5°F-2.5°C 59% 8.0 mph NW12.9 kmh NW 12.0 mph19.3 kmh 30.13 in1020.3 mb 0.00 in0.0 mm 0.00 in0.0 mm 0.00 in0.0 mm
07:50 PM 40.8°F4.9°C 27.6°F-2.4°C 59% 8.0 mph NNW12.9 kmh NNW 12.0 mph19.3 kmh 30.14 in1020.7 mb 0.00 in0.0 mm 0.00 in0.0 mm 0.00 in0.0 mm
07:55 PM 40.8°F4.9°C 28.0°F-2.2°C 60% 9.0 mph NNW14.5 kmh NNW 12.0 mph19.3 kmh 30.13 in1020.3 mb 0.00 in0.0 mm 0.00 in0.0 mm 0.00 in0.0 mm
08:00 PM 40.8°F4.9°C 28.8°F-1.8°C 62% 10.0 mph NNW16.1 kmh NNW 12.0 mph19.3 kmh 30.13 in1020.3 mb 0.00 in0.0 mm 0.00 in0.0 mm 0.00 in0.0 mm
08:05 PM 40.7°F4.8°C 28.3°F-2.1°C 61% 8.0 mph NNW12.9 kmh NNW 13.0 mph20.9 kmh 30.14 in1020.7 mb 0.00 in0.0 mm 0.00 in0.0 mm 0.00 in0.0 mm
08:10 PM 40.7°F4.8°C 28.3°F-2.1°C 61% 11.0 mph NNW17.7 kmh NNW 12.0 mph19.3 kmh 30.13 in1020.3 mb 0.00 in0.0 mm 0.00 in0.0 mm 0.00 in0.0 mm
08:15 PM 40.6°F4.8°C 28.6°F-1.9°C 62% 11.0 mph N17.7 kmh N 13.0 mph20.9 kmh 30.14 in1020.7 mb 0.00 in0.0 mm 0.00 in0.0 mm 0.00 in0.0 mm
08:20 PM 40.5°F4.7°C 29.3°F-1.5°C 64% 11.0 mph N17.7 kmh N 13.0 mph20.9 kmh 30.14 in1020.7 mb 0.00 in0.0 mm 0.00 in0.0 mm 0.00 in0.0 mm
08:25 PM 40.6°F4.8°C 31.2°F-0.4°C 69% 16.0 mph N25.7 kmh N 16.0 mph25.7 kmh 30.14 in1020.7 mb 0.00 in0.0 mm 0.00 in0.0 mm 0.00 in0.0 mm
08:30 PM 40.4°F4.7°C 30.7°F-0.7°C 68% 17.0 mph N27.4 kmh N 20.0 mph32.2 kmh 30.14 in1020.7 mb 0.00 in0.0 mm 0.00 in0.0 mm 0.00 in0.0 mm
08:35 PM 40.3°F4.6°C 30.6°F-0.8°C 68% 18.0 mph N29.0 kmh N 20.0 mph32.2 kmh 30.13 in1020.3 mb 0.00 in0.0 mm 0.00 in0.0 mm 0.00 in0.0 mm
08:40 PM 40.3°F4.6°C 31.3°F-0.4°C 70% 19.0 mph N30.6 kmh N 19.0 mph30.6 kmh 30.14 in1020.7 mb 0.00 in0.0 mm 0.00 in0.0 mm 0.00 in0.0 mm
08:45 PM 40.1°F4.5°C 30.0°F-1.1°C 67% 18.0 mph NNE29.0 kmh NNE 19.0 mph30.6 kmh 30.15 in1021.0 mb 0.00 in0.0 mm 0.00 in0.0 mm 0.00 in0.0 mm
08:50 PM 40.0°F4.4°C 29.9°F-1.2°C 67% 20.0 mph N32.2 kmh N 21.0 mph33.8 kmh 30.14 in1020.7 mb 0.00 in0.0 mm 0.00 in0.0 mm 0.00 in0.0 mm
08:55 PM 39.9°F4.4°C 29.1°F-1.6°C 65% 20.0 mph NNE32.2 kmh NNE 21.0 mph33.8 kmh 30.14 in1020.7 mb 0.00 in0.0 mm 0.00 in0.0 mm 0.00 in0.0 mm
09:00 PM 39.9°F4.4°C 29.9°F-1.2°C 67% 19.0 mph N30.6 kmh N 23.0 mph37.0 kmh 30.13 in1020.3 mb 0.00 in0.0 mm 0.00 in0.0 mm 0.00 in0.0 mm
09:05 PM 39.8°F4.3°C 28.6°F-1.9°C 64% 16.0 mph N25.7 kmh N 23.0 mph37.0 kmh 30.14 in1020.7 mb 0.00 in0.0 mm 0.00 in0.0 mm 0.00 in0.0 mm
09:10 PM 39.7°F4.3°C 28.2°F-2.1°C 63% 17.0 mph N27.4 kmh N 19.0 mph30.6 kmh 30.15 in1021.0 mb 0.00 in0.0 mm 0.00 in0.0 mm 0.00 in0.0 mm
09:15 PM 39.7°F4.3°C 28.9°F-1.7°C 65% 17.0 mph N27.4 kmh N 20.0 mph32.2 kmh 30.15 in1021.0 mb 0.00 in0.0 mm 0.00 in0.0 mm 0.00 in0.0 mm
09:20 PM 39.7°F4.3°C 27.4°F-2.6°C 61% 18.0 mph N29.0 kmh N 20.0 mph32.2 kmh 30.15 in1021.0 mb 0.00 in0.0 mm 0.00 in0.0 mm 0.00 in0.0 mm
09:25 PM 39.5°F4.2°C 27.2°F-2.7°C 61% 16.0 mph N25.7 kmh N 18.0 mph29.0 kmh 30.15 in1021.0 mb 0.00 in0.0 mm 0.00 in0.0 mm 0.00 in0.0 mm
09:30 PM 39.6°F4.2°C 28.1°F-2.2°C 63% 16.0 mph N25.7 kmh N 18.0 mph29.0 kmh 30.15 in1021.0 mb 0.00 in0.0 mm 0.00 in0.0 mm 0.00 in0.0 mm
09:35 PM 39.4°F4.1°C 27.1°F-2.7°C 61% 15.0 mph N24.1 kmh N 20.0 mph32.2 kmh 30.16 in1021.3 mb 0.00 in0.0 mm 0.00 in0.0 mm 0.00 in0.0 mm
09:40 PM 39.3°F4.1°C 27.4°F-2.6°C 62% 17.0 mph N27.4 kmh N 18.0 mph29.0 kmh 30.15 in1021.0 mb 0.00 in0.0 mm 0.00 in0.0 mm 0.00 in0.0 mm
09:45 PM 39.3°F4.1°C 28.2°F-2.1°C 64% 15.0 mph N24.1 kmh N 19.0 mph30.6 kmh 30.15 in1021.0 mb 0.00 in0.0 mm 0.00 in0.0 mm 0.00 in0.0 mm
09:50 PM 39.3°F4.1°C 27.8°F-2.3°C 63% 16.0 mph N25.7 kmh N 19.0 mph30.6 kmh 30.15 in1021.0 mb 0.00 in0.0 mm 0.00 in0.0 mm 0.00 in0.0 mm
09:55 PM 39.2°F4.0°C 28.4°F-2.0°C 65% 14.0 mph N22.5 kmh N 17.0 mph27.4 kmh 30.15 in1021.0 mb 0.00 in0.0 mm 0.00 in0.0 mm 0.00 in0.0 mm
10:00 PM 39.1°F3.9°C 28.3°F-2.1°C 65% 13.0 mph N20.9 kmh N 17.0 mph27.4 kmh 30.16 in1021.3 mb 0.00 in0.0 mm 0.00 in0.0 mm 0.00 in0.0 mm
10:05 PM 39.0°F3.9°C 28.6°F-1.9°C 66% 17.0 mph N27.4 kmh N 18.0 mph29.0 kmh 30.16 in1021.3 mb 0.00 in0.0 mm 0.00 in0.0 mm 0.00 in0.0 mm
10:10 PM 38.9°F3.8°C 28.5°F-1.9°C 66% 14.0 mph N22.5 kmh N 17.0 mph27.4 kmh 30.16 in1021.3 mb 0.00 in0.0 mm 0.00 in0.0 mm 0.00 in0.0 mm
10:15 PM 38.8°F3.8°C 27.7°F-2.4°C 64% 10.0 mph N16.1 kmh N 17.0 mph27.4 kmh 30.17 in1021.7 mb 0.00 in0.0 mm 0.00 in0.0 mm 0.00 in0.0 mm
10:20 PM 38.8°F3.8°C 28.1°F-2.2°C 65% 8.0 mph N12.9 kmh N 17.0 mph27.4 kmh 30.17 in1021.7 mb 0.00 in0.0 mm 0.00 in0.0 mm 0.00 in0.0 mm
10:25 PM 38.8°F3.8°C 28.4°F-2.0°C 66% 11.0 mph N17.7 kmh N 12.0 mph19.3 kmh 30.17 in1021.7 mb 0.00 in0.0 mm 0.00 in0.0 mm 0.00 in0.0 mm
10:30 PM 38.8°F3.8°C 29.2°F-1.6°C 68% 10.0 mph N16.1 kmh N 14.0 mph22.5 kmh 30.17 in1021.7 mb 0.00 in0.0 mm 0.00 in0.0 mm 0.00 in0.0 mm
10:35 PM 38.9°F3.8°C 29.3°F-1.5°C 68% 11.0 mph N17.7 kmh N 14.0 mph22.5 kmh 30.17 in1021.7 mb 0.00 in0.0 mm 0.00 in0.0 mm 0.00 in0.0 mm
10:40 PM 38.9°F3.8°C 29.3°F-1.5°C 68% 10.0 mph N16.1 kmh N 14.0 mph22.5 kmh 30.17 in1021.7 mb 0.00 in0.0 mm 0.00 in0.0 mm 0.00 in0.0 mm
10:45 PM 38.9°F3.8°C 30.3°F-0.9°C 71% 15.0 mph NNE24.1 kmh NNE 17.0 mph27.4 kmh 30.17 in1021.7 mb 0.00 in0.0 mm 0.00 in0.0 mm 0.00 in0.0 mm
10:50 PM 38.8°F3.8°C 29.9°F-1.2°C 70% 16.0 mph NNE25.7 kmh NNE 18.0 mph29.0 kmh 30.16 in1021.3 mb 0.00 in0.0 mm 0.00 in0.0 mm 0.00 in0.0 mm
10:55 PM 38.9°F3.8°C 30.7°F-0.7°C 72% 14.0 mph NNE22.5 kmh NNE 16.0 mph25.7 kmh 30.17 in1021.7 mb 0.00 in0.0 mm 0.00 in0.0 mm 0.00 in0.0 mm
11:00 PM 38.8°F3.8°C 30.6°F-0.8°C 72% 18.0 mph NNE29.0 kmh NNE 19.0 mph30.6 kmh 30.16 in1021.3 mb 0.00 in0.0 mm 0.00 in0.0 mm 0.00 in0.0 mm
11:05 PM 38.7°F3.7°C 30.5°F-0.8°C 72% 17.0 mph NNE27.4 kmh NNE 19.0 mph30.6 kmh 30.16 in1021.3 mb 0.00 in0.0 mm 0.00 in0.0 mm 0.00 in0.0 mm
11:10 PM 38.6°F3.7°C 30.0°F-1.1°C 71% 15.0 mph NNE24.1 kmh NNE 20.0 mph32.2 kmh 30.15 in1021.0 mb 0.00 in0.0 mm 0.00 in0.0 mm 0.00 in0.0 mm
11:15 PM 38.6°F3.7°C 30.4°F-0.9°C 72% 15.0 mph NNE24.1 kmh NNE 20.0 mph32.2 kmh 30.16 in1021.3 mb 0.00 in0.0 mm 0.00 in0.0 mm 0.00 in0.0 mm
11:20 PM 38.5°F3.6°C 30.3°F-0.9°C 72% 16.0 mph NNE25.7 kmh NNE 20.0 mph32.2 kmh 30.16 in1021.3 mb 0.00 in0.0 mm 0.00 in0.0 mm 0.00 in0.0 mm
11:25 PM 38.4°F3.6°C 30.2°F-1.0°C 72% 18.0 mph NNE29.0 kmh NNE 19.0 mph30.6 kmh 30.15 in1021.0 mb 0.00 in0.0 mm 0.00 in0.0 mm 0.00 in0.0 mm
11:30 PM 38.5°F3.6°C 30.6°F-0.8°C 73% 17.0 mph NE27.4 kmh NE 20.0 mph32.2 kmh 30.16 in1021.3 mb 0.00 in0.0 mm 0.00 in0.0 mm 0.00 in0.0 mm
11:35 PM 38.5°F3.6°C 30.6°F-0.8°C 73% 14.0 mph NE22.5 kmh NE 20.0 mph32.2 kmh 30.16 in1021.3 mb 0.00 in0.0 mm 0.00 in0.0 mm 0.00 in0.0 mm
11:40 PM 38.4°F3.6°C 30.9°F-0.6°C 74% 18.0 mph NNE29.0 kmh NNE 20.0 mph32.2 kmh 30.16 in1021.3 mb 0.00 in0.0 mm 0.00 in0.0 mm 0.00 in0.0 mm
11:45 PM 38.4°F3.6°C 30.5°F-0.8°C 73% 15.0 mph NE24.1 kmh NE 21.0 mph33.8 kmh 30.15 in1021.0 mb 0.00 in0.0 mm 0.00 in0.0 mm 0.00 in0.0 mm
11:50 PM 38.4°F3.6°C 30.9°F-0.6°C 74% 17.0 mph NNE27.4 kmh NNE 21.0 mph33.8 kmh 30.15 in1021.0 mb 0.00 in0.0 mm 0.00 in0.0 mm 0.00 in0.0 mm
11:55 PM 38.4°F3.6°C 30.9°F-0.6°C 74% 18.0 mph NNE29.0 kmh NNE 19.0 mph30.6 kmh 30.15 in1021.0 mb 0.00 in0.0 mm 0.00 in0.0 mm 0.00 in0.0 mm